createdAt,value
2018-12-23T00:00:03.897Z,0
2018-12-23T00:00:44.459Z,0
2018-12-23T00:01:25.030Z,0
2018-12-23T00:02:05.616Z,0
2018-12-23T00:02:46.182Z,0
2018-12-23T00:03:26.756Z,0
2018-12-23T00:04:07.307Z,0
2018-12-23T00:04:47.890Z,0
2018-12-23T00:05:28.438Z,0
2018-12-23T00:06:09.048Z,0
2018-12-23T00:06:49.598Z,0
2018-12-23T00:07:30.180Z,0
2018-12-23T00:08:10.771Z,0
2018-12-23T00:08:51.341Z,0
2018-12-23T00:09:31.937Z,0
2018-12-23T00:10:12.481Z,0
2018-12-23T00:10:53.180Z,0
2018-12-23T00:11:33.760Z,0
2018-12-23T00:12:14.402Z,0
2018-12-23T00:12:54.888Z,0
2018-12-23T00:13:35.440Z,0
2018-12-23T00:14:16.009Z,0
2018-12-23T00:14:56.562Z,0
2018-12-23T00:15:37.128Z,0
2018-12-23T00:16:17.703Z,0
2018-12-23T00:16:58.309Z,0
2018-12-23T00:17:38.873Z,0
2018-12-23T00:18:19.429Z,0
2018-12-23T00:18:59.983Z,0
2018-12-23T00:19:40.545Z,0
2018-12-23T00:20:21.094Z,0
2018-12-23T00:21:01.693Z,0
2018-12-23T00:21:42.282Z,0
2018-12-23T00:22:22.848Z,0
2018-12-23T00:23:03.398Z,0
2018-12-23T00:23:43.998Z,0
2018-12-23T00:24:24.578Z,0
2018-12-23T00:25:05.133Z,0
2018-12-23T00:25:45.694Z,0
2018-12-23T00:26:26.261Z,0
2018-12-23T00:27:06.817Z,0
2018-12-23T00:27:47.392Z,0
2018-12-23T00:28:27.951Z,0
2018-12-23T00:29:08.596Z,0
2018-12-23T00:29:49.102Z,0
2018-12-23T00:30:29.656Z,0
2018-12-23T00:31:10.210Z,0
2018-12-23T00:31:50.776Z,0
2018-12-23T00:32:31.363Z,0
2018-12-23T00:33:11.930Z,0
2018-12-23T00:33:52.499Z,0
2018-12-23T00:34:33.056Z,0
2018-12-23T00:35:20.166Z,0
2018-12-23T00:35:54.195Z,0
2018-12-23T00:36:34.753Z,0
2018-12-23T00:37:15.340Z,0
2018-12-23T00:37:55.906Z,0
2018-12-23T00:38:36.512Z,0
2018-12-23T00:39:17.100Z,0
2018-12-23T00:39:57.661Z,0
2018-12-23T00:40:38.215Z,0
2018-12-23T00:41:18.818Z,0
2018-12-23T00:41:59.440Z,0
2018-12-23T00:42:39.947Z,0
2018-12-23T00:43:20.553Z,0
2018-12-23T00:44:01.114Z,0
2018-12-23T00:44:41.672Z,0
2018-12-23T00:45:22.253Z,0
2018-12-23T00:46:02.834Z,0
2018-12-23T00:46:43.394Z,0
2018-12-23T00:47:23.941Z,0
2018-12-23T00:48:04.538Z,0
2018-12-23T00:48:45.106Z,0
2018-12-23T00:49:25.661Z,0
2018-12-23T00:50:06.227Z,0
2018-12-23T00:50:46.790Z,0
2018-12-23T00:51:27.344Z,0
2018-12-23T00:52:07.904Z,0
2018-12-23T00:52:48.453Z,0
2018-12-23T00:53:29.008Z,0
2018-12-23T00:54:09.571Z,0
2018-12-23T00:54:50.176Z,0
2018-12-23T00:55:30.746Z,0
2018-12-23T00:56:11.303Z,0
2018-12-23T00:56:51.851Z,0
2018-12-23T00:57:32.453Z,0
2018-12-23T00:58:13.060Z,0
2018-12-23T00:58:53.605Z,0
2018-12-23T00:59:34.232Z,0
2018-12-23T01:00:14.770Z,0
2018-12-23T01:00:55.332Z,0
2018-12-23T01:01:35.901Z,0
2018-12-23T01:02:16.462Z,0
2018-12-23T01:02:57.012Z,0
2018-12-23T01:03:37.562Z,0
2018-12-23T01:04:18.151Z,0
2018-12-23T01:04:58.716Z,0
2018-12-23T01:05:39.265Z,0
2018-12-23T01:06:19.838Z,0
2018-12-23T01:07:00.413Z,0
2018-12-23T01:07:41.034Z,0
2018-12-23T01:08:21.610Z,0
2018-12-23T01:09:02.162Z,0
2018-12-23T01:09:42.745Z,0
2018-12-23T01:10:23.356Z,0
2018-12-23T01:11:03.920Z,0
2018-12-23T01:11:44.473Z,0
2018-12-23T01:12:25.038Z,0
2018-12-23T01:13:05.638Z,0
2018-12-23T01:13:46.267Z,0
2018-12-23T01:14:26.866Z,0
2018-12-23T01:15:07.428Z,0
2018-12-23T01:15:47.995Z,0
2018-12-23T01:16:28.569Z,0
2018-12-23T01:17:09.252Z,0
2018-12-23T01:17:49.740Z,0
2018-12-23T01:18:30.301Z,0
2018-12-23T01:19:10.858Z,0
2018-12-23T01:19:51.428Z,0
2018-12-23T01:20:31.999Z,0
2018-12-23T01:21:12.570Z,0
2018-12-23T01:21:53.136Z,0
2018-12-23T01:22:33.698Z,0
2018-12-23T01:23:14.266Z,0
2018-12-23T01:23:54.832Z,0
2018-12-23T01:24:35.392Z,0
2018-12-23T01:25:15.943Z,0
2018-12-23T01:25:56.503Z,0
2018-12-23T01:26:37.077Z,0
2018-12-23T01:27:17.655Z,0
2018-12-23T01:27:58.272Z,0
2018-12-23T01:28:38.861Z,0
2018-12-23T01:29:19.412Z,0
2018-12-23T01:30:00.029Z,0
2018-12-23T01:30:40.657Z,0
2018-12-23T01:31:21.210Z,0
2018-12-23T01:32:01.807Z,0
2018-12-23T01:32:42.398Z,0
2018-12-23T01:33:22.945Z,0
2018-12-23T01:34:05.339Z,0
2018-12-23T01:34:44.091Z,0
2018-12-23T01:35:24.652Z,0
2018-12-23T01:36:05.211Z,0
2018-12-23T01:36:45.798Z,0
2018-12-23T01:37:26.355Z,0
2018-12-23T01:38:06.925Z,0
2018-12-23T01:38:47.483Z,0
2018-12-23T01:39:28.021Z,0
2018-12-23T01:40:08.596Z,0
2018-12-23T01:40:49.153Z,0
2018-12-23T01:41:29.710Z,0
2018-12-23T01:42:10.269Z,0
2018-12-23T01:42:50.824Z,0
2018-12-23T01:43:31.433Z,0
2018-12-23T01:44:12.005Z,0
2018-12-23T01:44:52.601Z,0
2018-12-23T01:45:33.177Z,0
2018-12-23T01:46:13.740Z,0
2018-12-23T01:46:54.309Z,0
2018-12-23T01:47:34.873Z,0
2018-12-23T01:48:15.430Z,0
2018-12-23T01:48:56.000Z,0
2018-12-23T01:49:36.570Z,0
2018-12-23T01:50:17.144Z,0
2018-12-23T01:50:57.686Z,0
2018-12-23T01:51:38.241Z,0
2018-12-23T01:52:18.824Z,0
2018-12-23T01:52:59.372Z,0
2018-12-23T01:53:39.929Z,0
2018-12-23T01:54:20.479Z,0
2018-12-23T01:55:01.117Z,0
2018-12-23T01:55:41.690Z,0
2018-12-23T01:56:22.302Z,0
2018-12-23T01:57:02.853Z,0
2018-12-23T01:57:43.451Z,0
2018-12-23T01:58:24.024Z,0
2018-12-23T01:59:04.583Z,0
2018-12-23T01:59:45.191Z,0
2018-12-23T02:00:25.680Z,0
2018-12-23T02:01:06.256Z,0
2018-12-23T02:01:46.828Z,0
2018-12-23T02:02:27.419Z,0
2018-12-23T02:03:08.028Z,0
2018-12-23T02:03:48.606Z,0
2018-12-23T02:04:29.157Z,0
2018-12-23T02:05:09.885Z,0
2018-12-23T02:05:50.445Z,0
2018-12-23T02:06:31.029Z,0
2018-12-23T02:07:11.611Z,0
2018-12-23T02:07:52.195Z,0
2018-12-23T02:08:32.770Z,0
2018-12-23T02:09:13.326Z,0
2018-12-23T02:09:53.914Z,0
2018-12-23T02:10:34.478Z,0
2018-12-23T02:11:15.182Z,0
2018-12-23T02:11:55.732Z,0
2018-12-23T02:12:36.310Z,0
2018-12-23T02:13:16.854Z,0
2018-12-23T02:13:57.419Z,0
2018-12-23T02:14:37.979Z,0
2018-12-23T02:15:18.529Z,0
2018-12-23T02:15:59.098Z,0
2018-12-23T02:16:39.654Z,0
2018-12-23T02:17:20.226Z,0
2018-12-23T02:18:00.815Z,0
2018-12-23T02:18:41.364Z,0
2018-12-23T02:19:21.935Z,0
2018-12-23T02:20:02.485Z,0
2018-12-23T02:20:43.056Z,0
2018-12-23T02:21:23.612Z,0
2018-12-23T02:22:04.163Z,0
2018-12-23T02:22:44.748Z,0
2018-12-23T02:23:25.371Z,0
2018-12-23T02:24:06.017Z,0
2018-12-23T02:24:46.551Z,0
2018-12-23T02:25:27.125Z,0
2018-12-23T02:26:07.694Z,0
2018-12-23T02:26:48.252Z,0
2018-12-23T02:27:28.828Z,0
2018-12-23T02:28:09.382Z,0
2018-12-23T02:28:49.935Z,0
2018-12-23T02:29:30.576Z,0
2018-12-23T02:30:11.137Z,0
2018-12-23T02:30:51.691Z,0
2018-12-23T02:31:32.269Z,0
2018-12-23T02:32:12.826Z,0
2018-12-23T02:32:53.383Z,0
2018-12-23T02:33:33.944Z,0
2018-12-23T02:34:14.504Z,0
2018-12-23T02:34:55.059Z,0
2018-12-23T02:35:35.711Z,0
2018-12-23T02:36:16.272Z,0
2018-12-23T02:36:56.861Z,0
2018-12-23T02:37:37.436Z,0
2018-12-23T02:38:18.027Z,0
2018-12-23T02:38:58.566Z,0
2018-12-23T02:39:39.114Z,0
2018-12-23T02:40:19.662Z,0
2018-12-23T02:41:00.249Z,0
2018-12-23T02:41:40.796Z,0
2018-12-23T02:42:21.369Z,0
2018-12-23T02:43:02.351Z,0
2018-12-23T02:43:42.904Z,0
2018-12-23T02:44:23.470Z,0
2018-12-23T02:45:04.034Z,0
2018-12-23T02:45:44.605Z,0
2018-12-23T02:46:25.173Z,0
2018-12-23T02:47:05.829Z,0
2018-12-23T02:47:46.396Z,0
2018-12-23T02:48:26.949Z,0
2018-12-23T02:49:07.511Z,0
2018-12-23T02:49:48.068Z,0
2018-12-23T02:50:28.633Z,0
2018-12-23T02:51:09.185Z,0
2018-12-23T02:51:49.768Z,0
2018-12-23T02:52:30.353Z,0
2018-12-23T02:53:11.016Z,0
2018-12-23T02:53:51.597Z,0
2018-12-23T02:54:32.147Z,0
2018-12-23T02:55:12.760Z,0
2018-12-23T02:55:53.329Z,0
2018-12-23T02:56:33.879Z,0
2018-12-23T02:57:14.449Z,0
2018-12-23T02:57:55.019Z,0
2018-12-23T02:58:35.595Z,0
2018-12-23T02:59:16.193Z,0
2018-12-23T02:59:56.743Z,0
2018-12-23T03:00:37.305Z,0
2018-12-23T03:01:17.856Z,0
2018-12-23T03:01:58.412Z,0
2018-12-23T03:02:39.010Z,0
2018-12-23T03:03:19.615Z,0
2018-12-23T03:04:00.184Z,0
2018-12-23T03:04:40.776Z,0
2018-12-23T03:05:21.338Z,0
2018-12-23T03:06:05.940Z,0
2018-12-23T03:06:42.458Z,0
2018-12-23T03:07:23.025Z,0
2018-12-23T03:08:03.617Z,0
2018-12-23T03:08:44.184Z,0
2018-12-23T03:09:24.763Z,0
2018-12-23T03:10:05.400Z,0
2018-12-23T03:10:45.947Z,0
2018-12-23T03:11:26.491Z,0
2018-12-23T03:12:07.063Z,0
2018-12-23T03:12:47.699Z,0
2018-12-23T03:13:28.263Z,0
2018-12-23T03:14:08.832Z,0
2018-12-23T03:14:49.384Z,0
2018-12-23T03:15:29.930Z,0
2018-12-23T03:16:10.502Z,0
2018-12-23T03:16:51.090Z,0
2018-12-23T03:17:31.693Z,0
2018-12-23T03:18:12.256Z,0
2018-12-23T03:18:52.790Z,0
2018-12-23T03:19:33.398Z,0
2018-12-23T03:20:14.073Z,0
2018-12-23T03:20:54.640Z,0
2018-12-23T03:21:35.201Z,0
2018-12-23T03:22:15.920Z,0
2018-12-23T03:22:56.472Z,0
2018-12-23T03:23:37.030Z,0
2018-12-23T03:24:17.587Z,0
2018-12-23T03:24:58.132Z,0
2018-12-23T03:25:38.690Z,0
2018-12-23T03:26:19.242Z,0
2018-12-23T03:26:59.795Z,0
2018-12-23T03:27:40.408Z,0
2018-12-23T03:28:21.040Z,0
2018-12-23T03:29:01.659Z,0
2018-12-23T03:29:42.152Z,0
2018-12-23T03:30:22.714Z,0
2018-12-23T03:31:03.319Z,0
2018-12-23T03:31:43.881Z,0
2018-12-23T03:32:24.456Z,0
2018-12-23T03:33:05.006Z,0
2018-12-23T03:33:45.580Z,0
2018-12-23T03:34:26.176Z,0
2018-12-23T03:35:06.735Z,0
2018-12-23T03:35:47.318Z,0
2018-12-23T03:36:27.888Z,0
2018-12-23T03:37:08.449Z,0
2018-12-23T03:37:48.997Z,0
2018-12-23T03:38:29.576Z,0
2018-12-23T03:39:10.142Z,0
2018-12-23T03:39:50.702Z,0
2018-12-23T03:40:31.304Z,0
2018-12-23T03:41:11.876Z,0
2018-12-23T03:41:52.453Z,0
2018-12-23T03:42:33.030Z,0
2018-12-23T03:43:13.598Z,0
2018-12-23T03:43:54.170Z,0
2018-12-23T03:44:34.732Z,0
2018-12-23T03:45:15.297Z,0
2018-12-23T03:45:55.873Z,0
2018-12-23T03:46:36.471Z,0
2018-12-23T03:47:17.020Z,0
2018-12-23T03:47:57.567Z,0
2018-12-23T03:48:38.115Z,0
2018-12-23T03:49:18.673Z,0
2018-12-23T03:49:59.224Z,0
2018-12-23T03:50:39.786Z,0
2018-12-23T03:51:20.352Z,0
2018-12-23T03:52:00.904Z,0
2018-12-23T03:52:41.453Z,0
2018-12-23T03:53:22.035Z,0
2018-12-23T03:54:02.588Z,0
2018-12-23T03:54:43.171Z,0
2018-12-23T03:55:23.734Z,0
2018-12-23T03:56:04.296Z,0
2018-12-23T03:56:44.855Z,0
2018-12-23T03:57:25.412Z,0
2018-12-23T03:58:05.982Z,0
2018-12-23T03:58:46.578Z,0
2018-12-23T03:59:27.209Z,0
2018-12-23T04:00:07.763Z,0
2018-12-23T04:00:48.332Z,0
2018-12-23T04:01:28.902Z,0
2018-12-23T04:02:09.488Z,0
2018-12-23T04:02:50.043Z,0
2018-12-23T04:03:30.618Z,0
2018-12-23T04:04:11.187Z,0
2018-12-23T04:04:51.754Z,0
2018-12-23T04:05:32.305Z,0
2018-12-23T04:06:12.863Z,0
2018-12-23T04:06:53.416Z,0
2018-12-23T04:07:34.000Z,0
2018-12-23T04:08:14.749Z,0
2018-12-23T04:08:55.178Z,0
2018-12-23T04:09:35.731Z,0
2018-12-23T04:10:16.274Z,0
2018-12-23T04:10:56.824Z,0
2018-12-23T04:11:37.395Z,0
2018-12-23T04:12:17.956Z,0
2018-12-23T04:12:58.503Z,0
2018-12-23T04:13:39.066Z,0
2018-12-23T04:14:19.690Z,0
2018-12-23T04:15:00.266Z,0
2018-12-23T04:15:40.868Z,0
2018-12-23T04:16:21.426Z,0
2018-12-23T04:17:01.991Z,0
2018-12-23T04:17:42.565Z,0
2018-12-23T04:18:23.220Z,0
2018-12-23T04:19:03.896Z,0
2018-12-23T04:19:44.465Z,0
2018-12-23T04:20:25.105Z,0
2018-12-23T04:21:05.668Z,0
2018-12-23T04:21:46.234Z,0
2018-12-23T04:22:26.975Z,0
2018-12-23T04:23:07.583Z,0
2018-12-23T04:23:48.167Z,0
2018-12-23T04:24:28.759Z,0
2018-12-23T04:25:09.422Z,0
2018-12-23T04:25:50.006Z,0
2018-12-23T04:26:30.603Z,0
2018-12-23T04:27:11.180Z,0
2018-12-23T04:27:51.762Z,0
2018-12-23T04:28:32.335Z,0
2018-12-23T04:29:13.051Z,0
2018-12-23T04:29:53.636Z,0
2018-12-23T04:30:34.217Z,0
2018-12-23T04:31:14.782Z,0
2018-12-23T04:31:55.360Z,0
2018-12-23T04:32:35.928Z,0
2018-12-23T04:33:16.495Z,0
2018-12-23T04:33:57.054Z,0
2018-12-23T04:34:37.668Z,0
2018-12-23T04:35:18.234Z,0
2018-12-23T04:35:58.792Z,0
2018-12-23T04:36:39.357Z,0
2018-12-23T04:37:19.925Z,0
2018-12-23T04:38:00.492Z,0
2018-12-23T04:38:41.061Z,0
2018-12-23T04:39:21.628Z,0
2018-12-23T04:40:02.206Z,0
2018-12-23T04:40:42.762Z,0
2018-12-23T04:41:23.331Z,0
2018-12-23T04:42:03.892Z,0
2018-12-23T04:42:44.491Z,0
2018-12-23T04:43:25.306Z,0
2018-12-23T04:44:05.864Z,0
2018-12-23T04:44:46.412Z,0
2018-12-23T04:45:27.021Z,0
2018-12-23T04:46:07.652Z,0
2018-12-23T04:46:48.228Z,0
2018-12-23T04:47:28.803Z,0
2018-12-23T04:48:09.360Z,0
2018-12-23T04:48:49.917Z,0
2018-12-23T04:49:30.495Z,0
2018-12-23T04:50:11.063Z,0
2018-12-23T04:50:51.618Z,0
2018-12-23T04:51:32.191Z,0
2018-12-23T04:52:12.750Z,0
2018-12-23T04:52:53.319Z,0
2018-12-23T04:53:33.875Z,0
2018-12-23T04:54:14.447Z,0
2018-12-23T04:54:55.082Z,0
2018-12-23T04:55:35.675Z,0
2018-12-23T04:56:16.222Z,0
2018-12-23T04:56:56.779Z,0
2018-12-23T04:57:37.341Z,0
2018-12-23T04:58:17.934Z,0
2018-12-23T04:58:58.470Z,0
2018-12-23T04:59:39.037Z,0
2018-12-23T05:00:19.622Z,0
2018-12-23T05:01:00.224Z,0
2018-12-23T05:01:40.795Z,0
2018-12-23T05:02:21.346Z,0
2018-12-23T05:03:01.924Z,0
2018-12-23T05:03:43.237Z,0
2018-12-23T05:04:23.054Z,0
2018-12-23T05:05:03.639Z,0
2018-12-23T05:05:44.200Z,0
2018-12-23T05:06:24.768Z,0
2018-12-23T05:07:05.345Z,0
2018-12-23T05:07:45.910Z,0
2018-12-23T05:08:26.486Z,0
2018-12-23T05:09:07.067Z,0
2018-12-23T05:09:47.676Z,0
2018-12-23T05:10:28.229Z,0
2018-12-23T05:11:08.808Z,0
2018-12-23T05:11:49.387Z,0
2018-12-23T05:12:29.930Z,0
2018-12-23T05:13:10.507Z,0
2018-12-23T05:13:51.080Z,0
2018-12-23T05:14:31.632Z,0
2018-12-23T05:15:12.176Z,0
2018-12-23T05:15:52.761Z,0
2018-12-23T05:16:33.314Z,0
2018-12-23T05:17:13.865Z,0
2018-12-23T05:17:54.447Z,0
2018-12-23T05:18:35.035Z,0
2018-12-23T05:19:15.627Z,0
2018-12-23T05:19:56.195Z,0
2018-12-23T05:20:36.762Z,0
2018-12-23T05:21:17.355Z,0
2018-12-23T05:21:57.914Z,0
2018-12-23T05:22:38.687Z,0
2018-12-23T05:23:19.148Z,0
2018-12-23T05:23:59.803Z,0
2018-12-23T05:24:40.306Z,0
2018-12-23T05:25:20.856Z,0
2018-12-23T05:26:01.457Z,0
2018-12-23T05:26:42.046Z,0
2018-12-23T05:27:22.619Z,0
2018-12-23T05:28:03.176Z,0
2018-12-23T05:28:43.756Z,0
2018-12-23T05:29:24.311Z,0
2018-12-23T05:30:04.872Z,0
2018-12-23T05:30:45.437Z,0
2018-12-23T05:31:26.001Z,0
2018-12-23T05:32:06.571Z,0
2018-12-23T05:32:47.143Z,0
2018-12-23T05:33:27.714Z,0
2018-12-23T05:34:08.284Z,0
2018-12-23T05:34:48.840Z,0
2018-12-23T05:35:29.411Z,0
2018-12-23T05:36:09.979Z,0
2018-12-23T05:36:52.491Z,0
2018-12-23T05:37:31.104Z,0
2018-12-23T05:38:11.657Z,0
2018-12-23T05:38:52.221Z,0
2018-12-23T05:39:32.790Z,0
2018-12-23T05:40:13.342Z,0
2018-12-23T05:40:53.894Z,0
2018-12-23T05:41:34.489Z,0
2018-12-23T05:42:15.049Z,0
2018-12-23T05:42:55.638Z,0
2018-12-23T05:43:36.287Z,0
2018-12-23T05:44:16.848Z,0
2018-12-23T05:44:57.426Z,0
2018-12-23T05:45:37.976Z,0
2018-12-23T05:46:18.541Z,0
2018-12-23T05:46:59.101Z,0
2018-12-23T05:47:39.693Z,0
2018-12-23T05:48:20.242Z,0
2018-12-23T05:49:00.804Z,0
2018-12-23T05:49:41.365Z,0
2018-12-23T05:50:21.933Z,0
2018-12-23T05:51:02.505Z,0
2018-12-23T05:51:43.134Z,0
2018-12-23T05:52:23.881Z,0
2018-12-23T05:53:04.264Z,0
2018-12-23T05:53:44.838Z,0
2018-12-23T05:54:25.407Z,0
2018-12-23T05:55:05.968Z,0
2018-12-23T05:55:46.536Z,0
2018-12-23T05:56:27.151Z,0
2018-12-23T05:57:07.723Z,0
2018-12-23T05:57:48.293Z,0
2018-12-23T05:58:28.850Z,0
2018-12-23T05:59:09.432Z,0
2018-12-23T05:59:50.030Z,0
2018-12-23T06:00:30.588Z,0
2018-12-23T06:01:11.152Z,0
2018-12-23T06:01:51.738Z,0
2018-12-23T06:02:32.323Z,0
2018-12-23T06:03:12.879Z,0
2018-12-23T06:03:53.452Z,0
2018-12-23T06:04:34.000Z,0
2018-12-23T06:05:14.555Z,0
2018-12-23T06:05:55.134Z,0
2018-12-23T06:06:35.688Z,0
2018-12-23T06:07:16.256Z,0
2018-12-23T06:07:56.820Z,0
2018-12-23T06:08:37.432Z,0
2018-12-23T06:09:17.995Z,0
2018-12-23T06:09:58.557Z,0
2018-12-23T06:10:39.122Z,0
2018-12-23T06:11:19.689Z,0
2018-12-23T06:12:00.253Z,0
2018-12-23T06:12:40.820Z,0
2018-12-23T06:13:21.436Z,0
2018-12-23T06:14:01.991Z,0
2018-12-23T06:14:42.599Z,0
2018-12-23T06:15:23.172Z,0
2018-12-23T06:16:03.755Z,0
2018-12-23T06:16:44.320Z,0
2018-12-23T06:17:24.889Z,0
2018-12-23T06:18:05.455Z,0
2018-12-23T06:18:46.103Z,0
2018-12-23T06:19:26.721Z,0
2018-12-23T06:20:07.304Z,0
2018-12-23T06:20:47.872Z,0
2018-12-23T06:21:28.453Z,0
2018-12-23T06:22:09.046Z,0
2018-12-23T06:22:49.628Z,0
2018-12-23T06:23:30.281Z,0
2018-12-23T06:24:10.827Z,0
2018-12-23T06:24:51.407Z,0
2018-12-23T06:25:31.993Z,0
2018-12-23T06:26:12.545Z,0
2018-12-23T06:26:53.119Z,0
2018-12-23T06:27:33.670Z,0
2018-12-23T06:28:14.269Z,0
2018-12-23T06:28:54.841Z,0
2018-12-23T06:29:35.446Z,0
2018-12-23T06:30:16.009Z,0
2018-12-23T06:30:56.609Z,0
2018-12-23T06:31:37.165Z,0
2018-12-23T06:32:17.719Z,0
2018-12-23T06:32:58.324Z,0
2018-12-23T06:33:38.879Z,0
2018-12-23T06:34:19.458Z,0
2018-12-23T06:35:00.009Z,0
2018-12-23T06:35:40.578Z,0
2018-12-23T06:36:21.209Z,0
2018-12-23T06:37:09.702Z,0
2018-12-23T06:37:42.337Z,0
2018-12-23T06:38:22.968Z,0
2018-12-23T06:39:03.538Z,0
2018-12-23T06:39:44.104Z,0
2018-12-23T06:40:24.674Z,0
2018-12-23T06:41:05.283Z,0
2018-12-23T06:41:45.840Z,0
2018-12-23T06:42:26.391Z,0
2018-12-23T06:43:07.248Z,0
2018-12-23T06:43:47.886Z,0
2018-12-23T06:44:28.450Z,0
2018-12-23T06:45:09.011Z,0
2018-12-23T06:45:49.565Z,0
2018-12-23T06:46:30.146Z,0
2018-12-23T06:47:10.759Z,0
2018-12-23T06:47:51.309Z,0
2018-12-23T06:48:31.875Z,0
2018-12-23T06:49:12.442Z,0
2018-12-23T06:49:53.019Z,0
2018-12-23T06:50:33.588Z,0
2018-12-23T06:51:14.172Z,0
2018-12-23T06:51:54.716Z,0
2018-12-23T06:52:35.319Z,0
2018-12-23T06:53:15.877Z,0
2018-12-23T06:53:56.446Z,0
2018-12-23T06:54:36.995Z,0
2018-12-23T06:55:17.560Z,0
2018-12-23T06:55:58.141Z,0
2018-12-23T06:56:38.711Z,0
2018-12-23T06:57:19.318Z,0
2018-12-23T06:57:59.880Z,0
2018-12-23T06:58:40.444Z,0
2018-12-23T06:59:21.000Z,0
2018-12-23T07:00:01.569Z,0
2018-12-23T07:00:42.126Z,0
2018-12-23T07:01:22.685Z,0
2018-12-23T07:02:03.252Z,0
2018-12-23T07:02:43.811Z,0
2018-12-23T07:03:24.370Z,0
2018-12-23T07:04:04.930Z,0
2018-12-23T07:04:45.503Z,0
2018-12-23T07:05:26.069Z,0
2018-12-23T07:06:06.664Z,0
2018-12-23T07:06:47.225Z,0
2018-12-23T07:07:27.782Z,0
2018-12-23T07:08:08.357Z,0
2018-12-23T07:08:48.929Z,0
2018-12-23T07:09:29.484Z,0
2018-12-23T07:10:10.065Z,0
2018-12-23T07:10:50.638Z,0
2018-12-23T07:11:31.193Z,0
2018-12-23T07:12:11.741Z,0
2018-12-23T07:12:52.305Z,0
2018-12-23T07:13:32.886Z,0
2018-12-23T07:14:13.455Z,0
2018-12-23T07:14:54.007Z,0
2018-12-23T07:15:34.579Z,0
2018-12-23T07:16:15.125Z,0
2018-12-23T07:16:55.716Z,0
2018-12-23T07:17:36.273Z,0
2018-12-23T07:18:16.832Z,0
2018-12-23T07:18:57.409Z,0
2018-12-23T07:19:37.954Z,0
2018-12-23T07:20:18.530Z,0
2018-12-23T07:20:59.084Z,0
2018-12-23T07:21:39.638Z,0
2018-12-23T07:22:20.204Z,0
2018-12-23T07:23:00.763Z,0
2018-12-23T07:23:41.324Z,0
2018-12-23T07:24:21.937Z,0
2018-12-23T07:25:02.480Z,0
2018-12-23T07:25:43.028Z,0
2018-12-23T07:26:23.627Z,0
2018-12-23T07:27:04.202Z,0
2018-12-23T07:27:44.754Z,0
2018-12-23T07:28:25.330Z,0
2018-12-23T07:29:05.884Z,0
2018-12-23T07:29:46.452Z,0
2018-12-23T07:30:27.035Z,5
2018-12-23T07:31:07.603Z,5
2018-12-23T07:31:48.184Z,5
2018-12-23T07:32:28.752Z,5
2018-12-23T07:33:09.331Z,5
2018-12-23T07:33:49.907Z,5
2018-12-23T07:34:30.510Z,0
2018-12-23T07:35:11.096Z,5
2018-12-23T07:35:51.686Z,5
2018-12-23T07:36:32.294Z,0
2018-12-23T07:37:12.914Z,5
2018-12-23T07:37:53.471Z,5
2018-12-23T07:38:34.063Z,5
2018-12-23T07:39:14.664Z,5
2018-12-23T07:39:55.257Z,5
2018-12-23T07:40:35.843Z,5
2018-12-23T07:41:16.424Z,5
2018-12-23T07:41:56.989Z,5
2018-12-23T07:42:37.536Z,5
2018-12-23T07:43:18.104Z,5
2018-12-23T07:43:58.703Z,5
2018-12-23T07:44:39.253Z,5
2018-12-23T07:45:19.842Z,5
2018-12-23T07:46:00.555Z,5
2018-12-23T07:46:41.113Z,5
2018-12-23T07:47:21.670Z,5
2018-12-23T07:48:02.281Z,5
2018-12-23T07:48:42.862Z,0
2018-12-23T07:49:23.429Z,5
2018-12-23T07:50:03.991Z,5
2018-12-23T07:50:44.545Z,5
2018-12-23T07:51:25.107Z,5
2018-12-23T07:52:05.665Z,5
2018-12-23T07:52:46.235Z,5
2018-12-23T07:53:26.795Z,5
2018-12-23T07:54:07.359Z,5
2018-12-23T07:54:47.916Z,5
2018-12-23T07:55:28.484Z,5
2018-12-23T07:56:09.049Z,5
2018-12-23T07:56:49.606Z,5
2018-12-23T07:57:30.167Z,5
2018-12-23T07:58:10.745Z,5
2018-12-23T07:58:51.320Z,5
2018-12-23T07:59:31.876Z,5
2018-12-23T08:00:12.433Z,5
2018-12-23T08:02:40.506Z,10
2018-12-23T08:03:21.094Z,10
2018-12-23T08:04:01.695Z,10
2018-12-23T08:04:42.257Z,10
2018-12-23T08:05:22.820Z,10
2018-12-23T08:06:03.398Z,15
2018-12-23T08:06:43.997Z,15
2018-12-23T08:07:24.554Z,20
2018-12-23T08:08:05.113Z,20
2018-12-23T08:08:45.677Z,15
2018-12-23T08:09:26.245Z,10
2018-12-23T08:10:06.853Z,10
2018-12-23T08:10:47.501Z,10
2018-12-23T08:11:28.116Z,10
2018-12-23T08:12:08.676Z,10
2018-12-23T08:12:49.250Z,10
2018-12-23T08:13:29.837Z,10
2018-12-23T08:14:10.393Z,5
2018-12-23T08:14:50.956Z,5
2018-12-23T08:15:31.564Z,5
2018-12-23T08:16:12.119Z,10
2018-12-23T08:16:52.696Z,5
2018-12-23T08:17:33.259Z,5
2018-12-23T08:18:13.868Z,5
2018-12-23T08:18:54.428Z,5
2018-12-23T08:19:34.993Z,5
2018-12-23T08:20:15.566Z,5
2018-12-23T08:20:56.122Z,5
2018-12-23T08:21:36.689Z,5
2018-12-23T08:22:17.274Z,5
2018-12-23T08:22:57.860Z,5
2018-12-23T08:23:38.421Z,5
2018-12-23T08:24:18.998Z,5
2018-12-23T08:24:59.570Z,5
2018-12-23T08:25:40.154Z,5
2018-12-23T08:26:20.763Z,5
2018-12-23T08:27:01.343Z,5
2018-12-23T08:27:42.099Z,5
2018-12-23T08:28:22.675Z,10
2018-12-23T08:29:03.278Z,10
2018-12-23T08:29:43.880Z,10
2018-12-23T08:30:24.496Z,10
2018-12-23T08:31:05.034Z,10
2018-12-23T08:31:45.701Z,10
2018-12-23T08:32:26.813Z,10
2018-12-23T08:33:07.730Z,10
2018-12-23T08:33:49.000Z,10
2018-12-23T08:34:29.757Z,10
2018-12-23T08:35:10.675Z,10
2018-12-23T08:35:51.686Z,15
2018-12-23T08:36:32.417Z,15
2018-12-23T08:37:13.413Z,15
2018-12-23T08:37:54.168Z,10
2018-12-23T08:38:35.056Z,10
2018-12-23T08:39:15.834Z,10
2018-12-23T08:39:56.673Z,15
2018-12-23T08:40:37.369Z,15
2018-12-23T08:41:17.891Z,15
2018-12-23T08:41:58.452Z,15
2018-12-23T08:42:39.040Z,15
2018-12-23T08:43:19.947Z,15
2018-12-23T08:44:00.535Z,15
2018-12-23T08:44:41.275Z,15
2018-12-23T08:45:21.864Z,15
2018-12-23T08:46:02.481Z,15
2018-12-23T08:46:43.067Z,15
2018-12-23T08:47:23.668Z,15
2018-12-23T08:48:04.251Z,20
2018-12-23T08:48:44.830Z,20
2018-12-23T08:49:25.539Z,20
2018-12-23T08:50:06.015Z,15
2018-12-23T08:50:46.605Z,15
2018-12-23T08:51:27.340Z,15
2018-12-23T08:52:07.933Z,15
2018-12-23T08:52:48.503Z,20
2018-12-23T08:53:29.070Z,20
2018-12-23T08:54:09.649Z,20
2018-12-23T08:54:50.253Z,20
2018-12-23T08:55:30.823Z,20
2018-12-23T08:56:11.444Z,20
2018-12-23T08:56:52.024Z,20
2018-12-23T08:57:32.607Z,20
2018-12-23T08:58:13.207Z,15
2018-12-23T08:58:53.786Z,10
2018-12-23T08:59:34.412Z,15
2018-12-23T09:00:15.011Z,15
2018-12-23T09:00:55.605Z,20
2018-12-23T09:01:36.177Z,20
2018-12-23T09:02:16.808Z,20
2018-12-23T09:02:57.401Z,25
2018-12-23T09:03:37.996Z,25
2018-12-23T09:04:18.583Z,30
2018-12-23T09:04:59.159Z,30
2018-12-23T09:05:39.777Z,35
2018-12-23T09:06:20.343Z,40
2018-12-23T09:07:00.917Z,40
2018-12-23T09:07:41.482Z,35
2018-12-23T09:08:22.089Z,40
2018-12-23T09:09:02.666Z,45
2018-12-23T09:09:43.253Z,40
2018-12-23T09:10:23.863Z,35
2018-12-23T09:11:04.411Z,40
2018-12-23T09:11:44.979Z,45
2018-12-23T09:12:25.570Z,50
2018-12-23T09:13:06.136Z,50
2018-12-23T09:13:46.756Z,55
2018-12-23T09:14:27.351Z,55
2018-12-23T09:15:08.054Z,55
2018-12-23T09:15:48.655Z,60
2018-12-23T09:16:29.231Z,55
2018-12-23T09:17:09.803Z,45
2018-12-23T09:17:50.357Z,45
2018-12-23T09:18:30.906Z,50
2018-12-23T09:19:11.475Z,30
2018-12-23T09:19:52.060Z,30
2018-12-23T09:20:32.618Z,25
2018-12-23T09:21:13.169Z,25
2018-12-23T09:21:53.721Z,25
2018-12-23T09:22:34.300Z,25
2018-12-23T09:23:14.862Z,20
2018-12-23T09:23:55.427Z,15
2018-12-23T09:24:35.970Z,15
2018-12-23T09:25:16.524Z,15
2018-12-23T09:25:57.099Z,15
2018-12-23T09:26:39.335Z,15
2018-12-23T09:27:20.223Z,20
2018-12-23T09:28:01.312Z,20
2018-12-23T09:28:42.333Z,25
2018-12-23T09:29:23.241Z,25
2018-12-23T09:30:04.319Z,30
2018-12-23T09:30:46.300Z,30
2018-12-23T09:31:27.268Z,35
2018-12-23T09:32:08.352Z,35
2018-12-23T09:32:49.344Z,30
2018-12-23T09:33:30.174Z,30
2018-12-23T09:34:10.930Z,35
2018-12-23T09:34:51.840Z,40
2018-12-23T09:35:32.608Z,45
2018-12-23T09:36:13.531Z,40
2018-12-23T09:36:54.381Z,45
2018-12-23T09:37:35.305Z,45
2018-12-23T09:38:16.120Z,50
2018-12-23T09:38:57.192Z,55
2018-12-23T09:39:39.096Z,55
2018-12-23T09:40:19.721Z,45
2018-12-23T09:41:00.905Z,45
2018-12-23T09:41:42.011Z,45
2018-12-23T09:42:23.171Z,40
2018-12-23T09:43:03.959Z,40
2018-12-23T09:43:44.675Z,45
2018-12-23T09:44:25.282Z,50
2018-12-23T09:45:05.854Z,50
2018-12-23T09:45:48.049Z,50
2018-12-23T09:46:28.897Z,45
2018-12-23T09:47:09.561Z,40
2018-12-23T09:47:50.131Z,40
2018-12-23T09:48:31.272Z,40
2018-12-23T09:49:12.326Z,40
2018-12-23T09:49:53.373Z,40
2018-12-23T09:50:34.502Z,40
2018-12-23T09:51:15.902Z,35
2018-12-23T09:51:56.488Z,35
2018-12-23T09:52:37.247Z,35
2018-12-23T09:53:18.415Z,40
2018-12-23T09:53:58.955Z,45
2018-12-23T09:54:39.783Z,40
2018-12-23T09:55:20.370Z,30
2018-12-23T09:56:01.207Z,35
2018-12-23T09:56:42.270Z,35
2018-12-23T09:57:22.879Z,35
2018-12-23T09:58:04.604Z,40